Time;durP1;ratioP1;P1;durP2;ratioP2;P2;SDS_P1;SDS_P2;PMS_P1;PMS_P2;Temp;Humidity;BMP_temperature;BMP_pressure;BME280_temperature;BME280_humidity;BME280_pressure;Samples;Min_cycle;Max_cycle;Signal;HPM_P1;HPM_P2
2022/03/16 00:01:59;;;;;;;51.43;40.13;;;8.10;99.90;;;8.92;100.00;98582.28;5202664;28;20198;-59
2022/03/16 00:04:32;;;;;;;51.60;39.63;;;8.10;99.90;;;8.95;100.00;98582.50;5206692;28;20653;-58
2022/03/16 00:07:07;;;;;;;46.17;37.17;;;8.20;99.90;;;8.95;100.00;98582.50;5208222;28;20263;-61
2022/03/16 00:09:41;;;;;;;52.77;39.80;;;8.10;99.90;;;8.93;100.00;98581.53;5210365;28;20696;-59
2022/03/16 00:12:15;;;;;;;51.27;38.63;;;8.10;99.90;;;8.91;100.00;98583.06;5204933;28;20206;-59
2022/03/16 00:14:48;;;;;;;46.23;37.13;;;8.10;99.90;;;8.89;100.00;98586.28;5200532;28;20684;-58
2022/03/16 00:17:21;;;;;;;54.43;42.57;;;8.10;99.90;;;8.82;100.00;98579.84;5204867;28;20198;-58
2022/03/16 00:19:55;;;;;;;56.87;43.43;;;8.00;99.90;;;8.86;100.00;98580.94;5206548;28;20214;-58
2022/03/16 00:22:29;;;;;;;62.17;45.73;;;8.00;99.90;;;8.93;100.00;98573.88;5206080;28;20213;-58
2022/03/16 00:25:04;;;;;;;60.23;45.07;;;8.00;99.90;;;8.86;100.00;98584.38;5205432;28;20229;-57
2022/03/16 00:27:38;;;;;;;62.97;44.67;;;8.00;99.90;;;8.85;100.00;98580.06;5206500;28;20244;-59
2022/03/16 00:30:13;;;;;;;51.70;40.93;;;8.00;99.90;;;8.84;100.00;98580.81;5204973;28;20226;-58
2022/03/16 00:32:46;;;;;;;54.77;42.57;;;8.00;99.90;;;8.86;100.00;98584.38;5206222;28;20208;-58
2022/03/16 00:35:19;;;;;;;53.50;41.33;;;8.10;99.90;;;8.89;100.00;98589.72;5205499;28;20661;-58
2022/03/16 00:37:53;;;;;;;54.77;43.50;;;8.10;99.90;;;8.90;100.00;98586.41;5205588;28;20194;-57
2022/03/16 00:40:26;;;;;;;53.17;42.53;;;8.10;99.90;;;8.93;100.00;98581.53;5206277;28;20204;-58
2022/03/16 00:43:00;;;;;;;55.90;43.57;;;8.10;99.90;;;8.93;100.00;98583.19;5205265;28;20838;-58
2022/03/16 00:45:33;;;;;;;62.47;43.67;;;8.10;99.90;;;8.96;100.00;98578.31;5207232;28;20198;-58
2022/03/16 00:48:06;;;;;;;57.63;44.73;;;8.00;99.90;;;8.95;100.00;98577.41;5205507;28;20197;-58
2022/03/16 00:50:39;;;;;;;58.90;43.30;;;8.00;99.90;;;8.95;100.00;98590.16;5205711;28;20202;-57
2022/03/16 00:53:14;;;;;;;54.47;42.13;;;8.00;99.90;;;8.90;100.00;98586.41;5208732;28;20198;-58
2022/03/16 00:55:47;;;;;;;57.97;44.73;;;8.00;99.90;;;8.91;100.00;98584.75;5205305;28;20264;-59
2022/03/16 00:58:20;;;;;;;56.30;43.43;;;8.00;99.90;;;8.87;100.00;98577.63;5205224;28;20218;-59
2022/03/16 01:00:53;;;;;;;62.00;42.87;;;8.00;99.90;;;8.84;100.00;98575.72;5202042;28;20198;-58
2022/03/16 01:03:27;;;;;;;57.83;42.50;;;8.00;99.90;;;8.84;100.00;98578.28;5207360;28;20633;-59
2022/03/16 01:06:00;;;;;;;52.90;42.13;;;8.00;99.90;;;8.84;100.00;98568.06;5205542;28;20619;-57
2022/03/16 01:08:34;;;;;;;56.90;41.77;;;8.00;99.90;;;8.84;100.00;98574.84;5203182;28;20627;-58
2022/03/16 01:11:07;;;;;;;55.93;41.20;;;8.00;99.90;;;8.85;100.00;98574.97;5204676;28;20558;-58
2022/03/16 01:13:41;;;;;;;65.23;44.07;;;8.10;99.90;;;8.86;100.00;98569.09;5205511;28;20202;-57
2022/03/16 01:16:14;;;;;;;57.27;41.83;;;8.00;99.90;;;8.86;100.00;98571.63;5202356;28;20205;-57
2022/03/16 01:18:47;;;;;;;59.33;44.10;;;8.00;99.90;;;8.87;100.00;98570.88;5204193;28;20296;-59
2022/03/16 01:21:20;;;;;;;56.60;43.43;;;8.00;99.90;;;8.88;100.00;98565.00;5201767;28;20205;-57
2022/03/16 01:23:55;;;;;;;59.10;43.30;;;8.00;99.90;;;8.91;100.00;98560.13;5204827;28;20323;-57
2022/03/16 01:26:28;;;;;;;60.20;43.77;;;8.00;99.90;;;8.93;100.00;98566.25;5203648;28;20197;-59
2022/03/16 01:29:01;;;;;;;56.83;42.07;;;7.90;99.90;;;8.92;100.00;98571.22;5204596;28;20228;-58
2022/03/16 01:31:35;;;;;;;59.20;44.77;;;8.00;99.90;;;8.91;100.00;98570.31;5204268;28;20316;-58
2022/03/16 01:34:08;;;;;;;54.57;41.57;;;8.00;99.90;;;8.91;100.00;98562.69;5203539;28;20198;-58
2022/03/16 01:36:41;;;;;;;57.63;41.73;;;8.00;99.90;;;8.86;100.00;98571.63;5204932;28;20198;-58
2022/03/16 01:39:16;;;;;;;61.40;41.80;;;8.00;99.90;;;8.84;100.00;98574.84;5204557;28;20603;-58
2022/03/16 01:41:50;;;;;;;49.40;38.97;;;8.00;99.90;;;8.85;100.00;98580.06;5204030;28;20193;-57
2022/03/16 01:44:42;;;;;;;48.87;38.50;;;8.00;99.90;;;8.85;100.00;98574.97;5201832;28;20221;-59
2022/03/16 01:47:17;;;;;;;60.50;41.50;;;8.10;99.90;;;8.87;100.00;98572.50;5197422;28;20284;-60
2022/03/16 01:49:52;;;;;;;55.23;40.10;;;8.10;99.90;;;8.87;100.00;98573.44;5201584;28;20221;-58
2022/03/16 01:52:28;;;;;;;65.03;46.60;;;8.00;99.90;;;8.86;100.00;98576.72;5201966;28;20654;-59
2022/03/16 01:55:05;;;;;;;60.07;43.67;;;8.00;99.90;;;8.88;100.00;98574.31;5204452;28;20189;-58
2022/03/16 01:57:42;;;;;;;55.77;42.47;;;8.00;99.90;;;8.88;100.00;98580.28;5205077;28;20672;-58
2022/03/16 02:00:16;;;;;;;60.77;45.40;;;8.10;99.90;;;8.93;100.00;98584.09;5210210;28;20222;-57
2022/03/16 02:02:49;;;;;;;60.10;44.60;;;8.00;99.90;;;8.93;100.00;98576.44;5200528;28;20549;-59
2022/03/16 02:05:23;;;;;;;58.10;42.97;;;8.00;99.90;;;8.93;100.00;98576.44;5197980;28;20256;-59
2022/03/16 02:07:57;;;;;;;53.53;40.67;;;8.00;99.90;;;8.90;100.00;98572.75;5202238;28;20203;-59
2022/03/16 02:10:31;;;;;;;60.73;42.20;;;8.00;99.90;;;8.91;100.00;98570.31;5200802;28;20202;-59
2022/03/16 02:13:08;;;;;;;59.57;41.57;;;8.00;99.90;;;8.86;100.00;98574.19;5203221;28;20201;-59
2022/03/16 02:15:42;;;;;;;52.30;38.40;;;8.00;99.90;;;8.83;100.00;98573.06;5203185;28;20224;-55
2022/03/16 02:18:15;;;;;;;52.37;37.97;;;8.00;99.90;;;8.81;100.00;98572.94;5204439;28;20222;-57
2022/03/16 02:20:51;;;;;;;61.13;42.80;;;8.00;99.90;;;8.83;100.00;98575.63;5203862;28;20208;-56
2022/03/16 02:23:26;;;;;;;49.07;37.97;;;8.00;99.90;;;8.84;100.00;98583.38;5201410;28;20201;-55
2022/03/16 02:25:59;;;;;;;60.20;43.80;;;8.00;99.90;;;8.82;100.00;98587.47;5205024;28;20200;-57
2022/03/16 02:28:32;;;;;;;55.37;41.47;;;7.90;99.90;;;8.75;100.00;98580.13;5207819;28;20221;-54
2022/03/16 02:31:06;;;;;;;52.07;38.20;;;7.90;99.90;;;8.77;100.00;98586.25;5208258;28;20683;-56
2022/03/16 02:33:40;;;;;;;54.57;40.20;;;7.90;99.90;;;8.78;100.00;98580.34;5206764;28;20690;-58
2022/03/16 02:36:13;;;;;;;65.83;45.23;;;8.00;99.90;;;8.80;100.00;98587.34;5204399;28;20194;-55
2022/03/16 02:38:47;;;;;;;58.53;40.73;;;8.00;99.90;;;8.82;100.00;98584.94;5204194;28;20214;-58
2022/03/16 02:41:20;;;;;;;64.17;44.63;;;8.00;99.90;;;8.82;100.00;98584.06;5204164;28;20201;-56
2022/03/16 02:43:54;;;;;;;60.63;42.87;;;8.00;99.90;;;8.78;100.00;98577.81;5204397;28;20225;-58
2022/03/16 02:46:27;;;;;;;57.13;41.37;;;7.90;99.90;;;8.81;100.00;98572.94;5204379;28;20212;-58
2022/03/16 02:49:00;;;;;;;74.70;45.83;;;8.00;99.90;;;8.83;100.00;98581.59;5206063;28;20217;-58
2022/03/16 02:51:33;;;;;;;70.17;46.97;;;8.00;99.90;;;8.80;100.00;98586.47;5209088;28;20571;-58
2022/03/16 02:54:07;;;;;;;65.60;43.27;;;8.00;99.90;;;8.79;100.00;98580.50;5204365;28;20201;-58
2022/03/16 02:56:40;;;;;;;64.30;44.33;;;8.00;99.90;;;8.81;100.00;98593.34;5201347;28;20201;-58
2022/03/16 02:59:13;;;;;;;59.00;42.80;;;7.90;99.90;;;8.74;100.00;98596.22;5204062;28;20747;-58
2022/03/16 03:01:46;;;;;;;59.60;43.13;;;7.90;99.90;;;8.74;100.00;98593.66;5202961;28;20213;-58
2022/03/16 03:04:20;;;;;;;56.63;42.80;;;7.90;99.90;;;8.76;100.00;98599.78;5203596;28;20599;-57
2022/03/16 03:06:53;;;;;;;67.97;44.97;;;7.90;99.90;;;8.78;100.00;98588.00;5204347;28;20198;-58
2022/03/16 03:09:27;;;;;;;69.87;46.67;;;7.90;99.90;;;8.77;100.00;98597.31;5203969;28;20240;-57
2022/03/16 03:12:01;;;;;;;66.03;46.30;;;8.00;99.90;;;8.75;100.00;98598.84;5203738;28;20208;-58
2022/03/16 03:14:35;;;;;;;56.67;42.77;;;8.00;99.90;;;8.77;100.00;98596.44;5203778;28;20629;-58
2022/03/16 03:17:08;;;;;;;60.97;43.27;;;8.00;99.90;;;8.71;100.00;98590.88;5204158;28;20205;-58
2022/03/16 03:19:43;;;;;;;54.50;41.57;;;7.90;99.90;;;8.72;100.00;98597.75;5203703;28;20309;-58
2022/03/16 03:22:21;;;;;;;62.57;42.90;;;7.90;99.90;;;8.69;100.00;98589.88;5204807;28;20203;-58
2022/03/16 03:25:14;;;;;;;59.30;41.43;;;7.80;99.90;;;8.59;100.00;98597.59;5201231;28;20260;-58
2022/03/16 03:27:47;;;;;;;63.33;39.80;;;7.80;99.90;;;8.60;100.00;98601.91;5203489;28;20589;-58
2022/03/16 03:30:20;;;;;;;72.20;40.60;;;7.70;99.90;;;8.59;100.00;98595.06;5202335;28;20578;-58
2022/03/16 03:32:53;;;;;;;62.97;40.03;;;7.80;99.90;;;8.62;100.00;98592.75;5205621;28;20216;-58
2022/03/16 03:35:26;;;;;;;73.77;41.70;;;7.80;99.90;;;8.68;100.00;98603.41;5207066;28;20198;-59
2022/03/16 03:37:59;;;;;;;80.13;42.30;;;7.70;99.90;;;8.63;100.00;98599.59;5206581;28;20198;-58
2022/03/16 03:40:34;;;;;;;85.77;42.27;;;7.80;99.90;;;8.62;100.00;98601.25;5206530;28;20533;-58
2022/03/16 03:43:07;;;;;;;97.43;45.73;;;7.80;99.90;;;8.62;100.00;98598.72;5206257;28;20200;-58
2022/03/16 03:45:40;;;;;;;81.87;42.07;;;7.70;99.90;;;8.59;100.00;98605.25;5206881;28;20237;-58
2022/03/16 03:48:13;;;;;;;89.67;44.37;;;7.70;99.90;;;8.59;100.00;98615.44;5206369;28;20217;-58
2022/03/16 03:50:46;;;;;;;101.57;48.13;;;7.70;99.90;;;8.58;100.00;98594.13;5203948;28;20252;-59
2022/03/16 03:53:20;;;;;;;87.60;43.87;;;7.60;99.90;;;8.53;100.00;98611.63;5206732;28;20292;-58
2022/03/16 03:55:54;;;;;;;87.13;43.03;;;7.60;99.90;;;8.51;100.00;98609.75;5204237;28;20191;-58
2022/03/16 03:58:27;;;;;;;78.23;41.03;;;7.60;99.90;;;8.50;100.00;98606.31;5205782;28;20224;-58
2022/03/16 04:01:00;;;;;;;87.00;43.53;;;7.60;99.90;;;8.46;100.00;98611.03;5206480;28;20566;-57
2022/03/16 04:03:33;;;;;;;87.70;41.57;;;7.60;99.90;;;8.48;100.00;98612.94;5206994;28;20285;-59
2022/03/16 04:06:07;;;;;;;86.53;45.73;;;7.60;99.90;;;8.45;100.00;98620.34;5213221;28;20222;-58
2022/03/16 04:08:42;;;;;;;90.10;45.53;;;7.60;99.90;;;8.47;100.00;98621.38;5207081;28;20232;-59
2022/03/16 04:11:17;;;;;;;98.50;48.73;;;7.60;99.90;;;8.44;100.00;98625.31;5203739;28;20196;-58
2022/03/16 04:13:50;;;;;;;97.87;51.07;;;7.50;99.90;;;8.33;100.00;98629.56;5210235;28;20189;-59
2022/03/16 04:16:23;;;;;;;99.73;48.13;;;7.40;99.90;;;8.30;100.00;98635.28;5206937;28;20205;-59
2022/03/16 04:18:56;;;;;;;96.90;49.63;;;7.40;99.90;;;8.22;100.00;98632.91;5203762;28;20599;-59
2022/03/16 04:21:29;;;;;;;93.70;46.73;;;7.40;99.90;;;8.26;100.00;98634.94;5205273;28;20197;-58
2022/03/16 04:24:03;;;;;;;91.50;48.07;;;7.40;99.90;;;8.26;100.00;98634.94;5205744;28;20201;-59
2022/03/16 04:26:38;;;;;;;91.73;48.77;;;7.40;99.90;;;8.18;100.00;98635.97;5206025;28;20591;-58
2022/03/16 04:29:11;;;;;;;95.77;49.57;;;7.30;99.90;;;8.24;100.00;98652.66;5205953;28;20231;-59
2022/03/16 04:31:44;;;;;;;82.10;45.90;;;7.30;99.90;;;8.17;100.00;98645.28;5205811;28;20198;-59
2022/03/16 04:34:17;;;;;;;88.50;48.07;;;7.30;99.90;;;8.13;100.00;98641.59;5204722;28;20205;-58
2022/03/16 04:36:50;;;;;;;82.37;46.80;;;7.30;99.90;;;8.18;100.00;98651.25;5209090;28;20285;-58
2022/03/16 04:39:23;;;;;;;81.30;46.47;;;7.30;99.90;;;8.13;100.00;98644.16;5205832;28;20224;-58
2022/03/16 04:41:57;;;;;;;77.03;44.93;;;7.30;99.90;;;8.20;100.00;98655.69;5206648;28;20221;-58
2022/03/16 04:44:30;;;;;;;72.23;43.03;;;7.30;99.90;;;8.18;100.00;98648.69;5205854;28;20569;-58
2022/03/16 04:47:05;;;;;;;69.40;43.13;;;7.20;99.90;;;8.13;100.00;98658.53;5205649;28;20201;-58
2022/03/16 04:49:38;;;;;;;67.33;41.67;;;7.20;99.90;;;8.00;100.00;98656.66;5209631;28;20225;-58
2022/03/16 04:52:11;;;;;;;65.17;41.37;;;7.10;99.90;;;8.12;100.00;98660.19;5204930;28;20305;-58
2022/03/16 04:54:44;;;;;;;64.77;41.40;;;7.20;99.90;;;8.04;100.00;98662.88;5204583;28;20220;-59
2022/03/16 04:57:19;;;;;;;56.13;40.03;;;7.10;99.90;;;7.67;100.00;98655.75;5205295;28;20201;-57
2022/03/16 04:59:52;;;;;;;54.70;38.67;;;6.80;99.90;;;7.60;100.00;98661.09;5205072;28;20217;-59
2022/03/16 05:02:25;;;;;;;55.87;39.10;;;6.80;99.90;;;7.73;100.00;98659.56;5202808;28;20685;-59
2022/03/16 05:04:58;;;;;;;53.67;37.67;;;6.80;99.90;;;7.68;100.00;98662.59;5204405;28;20827;-59
2022/03/16 05:07:31;;;;;;;50.47;37.53;;;6.70;99.90;;;7.60;100.00;98661.09;5205012;28;20588;-59
2022/03/16 05:10:05;;;;;;;51.80;36.80;;;6.70;99.90;;;7.44;100.00;98665.72;5204456;28;20218;-59
2022/03/16 05:12:41;;;;;;;52.80;38.13;;;6.60;99.90;;;7.39;100.00;98661.91;5200927;28;20201;-59
2022/03/16 05:15:16;;;;;;;54.07;38.60;;;6.60;99.90;;;7.31;100.00;98666.34;5201698;28;20205;-59
2022/03/16 05:17:49;;;;;;;52.10;37.07;;;6.60;99.90;;;7.42;100.00;98668.13;5202706;28;20197;-60
2022/03/16 05:20:23;;;;;;;52.40;37.70;;;6.70;99.90;;;7.41;100.00;98671.44;5208703;28;20285;-59
2022/03/16 05:22:56;;;;;;;55.27;39.17;;;6.70;99.90;;;7.36;100.00;98667.63;5203622;28;20209;-60
2022/03/16 05:25:31;;;;;;;57.37;39.73;;;6.70;99.90;;;7.32;100.00;98670.66;5206166;28;21908;-59
2022/03/16 05:28:06;;;;;;;53.93;38.30;;;6.70;99.90;;;7.28;100.00;98670.28;5206103;28;20630;-59
2022/03/16 05:30:39;;;;;;;54.37;38.63;;;6.60;99.90;;;7.31;100.00;98666.34;5204282;28;20189;-58
2022/03/16 05:33:12;;;;;;;53.30;38.43;;;6.60;99.90;;;7.25;100.00;98673.47;5202241;28;20208;-59
2022/03/16 05:35:45;;;;;;;57.27;39.87;;;6.60;99.90;;;7.30;100.00;98672.19;5203376;28;20209;-56
2022/03/16 05:38:18;;;;;;;58.63;38.87;;;6.70;99.90;;;7.24;100.00;98671.69;5203495;28;20222;-60
2022/03/16 05:40:51;;;;;;;56.77;38.50;;;6.70;99.90;;;7.31;100.00;98683.25;5204089;28;20562;-59
2022/03/16 05:43:25;;;;;;;55.30;39.67;;;6.70;99.90;;;7.19;100.00;98675.50;5204121;28;20204;-58
2022/03/16 05:45:58;;;;;;;54.90;39.23;;;6.60;99.90;;;7.33;100.00;98679.19;5202994;28;20225;-59
2022/03/16 05:48:32;;;;;;;54.50;38.33;;;6.70;99.90;;;7.37;100.00;98684.63;5202678;28;20217;-58
2022/03/16 05:51:05;;;;;;;51.20;36.33;;;6.70;99.90;;;7.33;100.00;98682.63;5199824;28;20190;-61
2022/03/16 05:53:38;;;;;;;53.20;38.20;;;6.70;99.90;;;7.40;100.00;98691.63;5202503;28;20234;-59
2022/03/16 05:56:11;;;;;;;52.13;40.93;;;6.80;99.90;;;7.32;100.00;98690.09;5204756;28;20212;-57
2022/03/16 05:58:45;;;;;;;49.77;37.57;;;6.70;99.90;;;7.31;100.00;98689.22;5200881;28;20230;-59
2022/03/16 06:01:18;;;;;;;47.30;35.80;;;6.70;99.90;;;7.26;100.00;98698.13;5204345;28;20201;-59
2022/03/16 06:03:51;;;;;;;44.67;34.63;;;6.60;99.90;;;7.13;100.00;98693.69;5201027;28;20197;-59
2022/03/16 06:06:26;;;;;;;47.03;35.23;;;6.50;99.90;;;7.01;100.00;98692.66;5202821;28;20229;-59
2022/03/16 06:08:59;;;;;;;47.37;36.83;;;6.30;99.90;;;7.02;100.00;98701.16;5202117;28;20232;-59
2022/03/16 06:11:32;;;;;;;46.33;34.87;;;6.30;99.90;;;7.07;100.00;98695.72;5203514;28;20209;-59
2022/03/16 06:14:06;;;;;;;43.50;34.70;;;6.30;99.90;;;6.96;100.00;98699.00;5206861;28;20198;-57
2022/03/16 06:16:39;;;;;;;45.10;35.17;;;6.30;99.90;;;6.93;100.00;98699.63;5203132;28;20698;-57
2022/03/16 06:19:13;;;;;;;43.37;33.47;;;6.30;99.90;;;6.88;100.00;98707.63;5199788;28;20252;-58
2022/03/16 06:21:46;;;;;;;45.03;34.73;;;6.20;99.90;;;6.85;100.00;98713.31;5201866;28;20206;-57
2022/03/16 06:24:20;;;;;;;46.47;34.57;;;6.20;99.90;;;6.86;100.00;98710.00;5203108;28;20268;-57
2022/03/16 06:26:53;;;;;;;46.83;35.20;;;6.20;99.90;;;6.89;100.00;98717.00;5203834;28;20240;-58
2022/03/16 06:29:27;;;;;;;45.87;34.53;;;6.20;99.90;;;6.84;100.00;98709.00;5203658;28;20221;-58
2022/03/16 06:32:00;;;;;;;44.43;35.00;;;6.20;99.90;;;6.83;100.00;98716.50;5203196;28;20568;-58
2022/03/16 06:34:33;;;;;;;49.80;36.60;;;6.20;99.90;;;6.96;100.00;98719.31;5203664;28;20623;-58
2022/03/16 06:37:06;;;;;;;47.10;36.13;;;6.30;99.90;;;6.85;100.00;98714.97;5203445;28;20208;-59
2022/03/16 06:39:39;;;;;;;49.73;36.10;;;6.30;99.90;;;6.89;100.00;98719.53;5203275;28;20585;-59
2022/03/16 06:42:13;;;;;;;47.97;34.90;;;6.30;99.90;;;6.98;100.00;98716.16;5200546;28;20198;-58
2022/03/16 06:44:47;;;;;;;47.73;34.90;;;6.30;99.90;;;6.98;100.00;98720.31;5203383;28;20670;-58
2022/03/16 06:47:20;;;;;;;42.87;32.53;;;6.30;99.90;;;6.98;100.00;98712.69;5203646;28;20225;-58
2022/03/16 06:49:53;;;;;;;46.93;34.00;;;6.30;99.90;;;6.98;100.00;98722.88;5202962;28;20213;-58
2022/03/16 06:52:26;;;;;;;43.80;32.87;;;6.30;99.90;;;7.03;100.00;98723.25;5203543;28;20198;-58
2022/03/16 06:54:59;;;;;;;43.07;34.00;;;6.40;99.90;;;7.09;100.00;98727.22;5203278;28;20198;-58
2022/03/16 06:57:32;;;;;;;44.30;33.40;;;6.40;99.90;;;7.16;100.00;98724.44;5202902;28;20195;-57
2022/03/16 07:00:13;;;;;;;45.20;34.40;;;6.50;99.90;;;7.28;100.00;98724.56;5203063;28;20249;-58
2022/03/16 07:02:56;;;;;;;40.77;30.70;;;6.60;99.90;;;7.16;100.00;98726.09;5203658;28;20285;-57
2022/03/16 07:05:31;;;;;;;40.27;31.63;;;6.50;99.90;;;7.21;100.00;98723.19;5202674;28;20736;-58
2022/03/16 07:08:07;;;;;;;39.67;31.40;;;6.50;99.90;;;7.26;100.00;98726.09;5204921;28;20598;-57
2022/03/16 07:10:43;;;;;;;41.37;31.47;;;6.60;99.90;;;7.28;100.00;98726.22;5206138;28;20202;-57
2022/03/16 07:13:16;;;;;;;40.53;32.23;;;6.60;99.90;;;7.29;100.00;98735.63;5207308;28;20197;-58
2022/03/16 07:15:51;;;;;;;37.43;31.10;;;6.60;99.90;;;7.33;100.00;98737.69;5206948;28;20204;-58
2022/03/16 07:18:24;;;;;;;38.93;31.40;;;6.60;99.90;;;7.36;100.00;98743.91;5206431;28;20218;-58
2022/03/16 07:20:57;;;;;;;37.43;31.53;;;6.70;99.90;;;7.36;100.00;98753.19;5208041;28;20284;-57
2022/03/16 07:23:30;;;;;;;36.60;29.93;;;6.70;99.90;;;7.36;100.00;98737.94;5206812;28;20210;-58
2022/03/16 07:26:03;;;;;;;36.37;29.37;;;6.60;99.90;;;7.35;100.00;98747.19;5206836;28;20714;-54
2022/03/16 07:28:36;;;;;;;36.03;30.30;;;6.60;99.90;;;7.42;100.00;98748.63;5207619;28;20228;-58
2022/03/16 07:31:11;;;;;;;34.23;27.80;;;6.70;99.90;;;7.44;100.00;98742.00;5206508;28;20673;-53
2022/03/16 07:33:44;;;;;;;37.90;29.80;;;6.70;99.90;;;7.45;100.00;98746.31;5206953;28;20664;-58
2022/03/16 07:36:17;;;;;;;36.53;28.97;;;6.70;99.90;;;7.51;100.00;98759.53;5205629;28;20206;-56
2022/03/16 07:38:50;;;;;;;37.17;29.60;;;6.80;99.90;;;7.55;100.00;98756.47;5206861;28;20221;-58
2022/03/16 07:41:23;;;;;;;37.03;30.67;;;6.80;99.90;;;7.53;100.00;98760.56;5206861;28;20206;-58
2022/03/16 07:43:56;;;;;;;37.40;29.93;;;6.80;99.90;;;7.61;100.00;98754.47;5215123;28;20224;-59
2022/03/16 07:46:30;;;;;;;35.40;29.33;;;6.90;99.90;;;7.72;100.00;98749.34;5206235;28;20228;-58
2022/03/16 07:49:03;;;;;;;34.80;29.80;;;7.00;99.90;;;7.83;100.00;98758.78;5206022;28;20229;-59
2022/03/16 07:51:36;;;;;;;37.50;30.07;;;7.10;99.90;;;7.92;100.00;98762.06;5206024;28;20209;-59
2022/03/16 07:54:09;;;;;;;36.13;30.17;;;7.10;99.90;;;7.92;100.00;98767.16;5206069;28;20200;-59
2022/03/16 07:56:43;;;;;;;39.57;33.70;;;7.10;99.90;;;7.87;99.34;98776.09;5204458;28;20193;-58
2022/03/16 07:59:16;;;;;;;38.87;32.83;;;7.10;99.90;;;7.82;100.00;98773.16;5205827;28;20241;-58
2022/03/16 08:01:51;;;;;;;36.73;31.57;;;7.20;99.90;;;7.95;98.34;98775.03;5206458;28;20198;-58
2022/03/16 08:04:24;;;;;;;34.00;28.43;;;7.10;99.90;;;8.01;98.96;98770.47;5205607;28;20228;-58
2022/03/16 08:06:58;;;;;;;35.03;29.03;;;7.20;99.90;;;8.11;98.64;98772.97;5200019;28;20221;-58
2022/03/16 08:09:31;;;;;;;34.50;30.03;;;7.30;99.90;;;8.16;96.79;98775.03;5205189;28;20715;-59
2022/03/16 08:12:05;;;;;;;36.00;29.13;;;7.40;99.90;;;8.12;97.20;98773.88;5206241;28;20201;-59
2022/03/16 08:14:38;;;;;;;35.40;29.33;;;7.30;99.90;;;8.04;96.52;98774.91;5198032;28;20202;-58
2022/03/16 08:17:12;;;;;;;37.20;29.83;;;7.30;99.90;;;8.05;99.11;98777.59;5204679;28;20655;-58
2022/03/16 08:19:46;;;;;;;37.33;30.13;;;7.40;99.90;;;8.10;100.00;98775.44;5203537;28;20228;-58
2022/03/16 08:22:26;;;;;;;37.77;30.17;;;7.40;99.90;;;8.21;99.98;98778.81;5205344;28;20202;-57
2022/03/16 08:25:01;;;;;;;35.27;29.67;;;7.50;99.90;;;8.27;98.61;98774.22;5200814;28;20198;-58
2022/03/16 08:27:36;;;;;;;36.33;28.70;;;7.50;99.90;;;8.29;98.68;98772.69;5204648;28;20249;-58
2022/03/16 08:30:11;;;;;;;37.67;29.80;;;7.50;99.90;;;8.33;99.96;98764.53;5204092;28;20217;-58
2022/03/16 08:32:45;;;;;;;37.10;29.83;;;7.60;99.90;;;8.42;100.00;98765.31;5204348;28;20554;-57
2022/03/16 08:35:18;;;;;;;35.00;28.93;;;7.70;99.90;;;8.56;100.00;98774.94;5204257;28;20196;-58
2022/03/16 08:37:52;;;;;;;36.47;28.43;;;7.80;99.90;;;8.55;96.20;98774.81;5200800;28;20205;-58
2022/03/16 08:40:25;;;;;;;33.17;27.77;;;7.90;99.90;;;8.62;98.00;98777.09;5204615;28;20202;-58
2022/03/16 08:42:58;;;;;;;32.53;28.10;;;7.90;99.90;;;8.69;96.01;98776.78;5201267;28;20209;-58
2022/03/16 08:45:31;;;;;;;32.23;27.23;;;8.00;99.90;;;8.80;95.91;98775.09;5204477;28;20202;-57
2022/03/16 08:48:06;;;;;;;34.80;29.10;;;8.00;99.90;;;8.97;93.65;98769.66;5203709;28;20229;-59
2022/03/16 08:50:40;;;;;;;32.80;27.50;;;8.20;99.90;;;9.08;92.40;98762.84;5205092;28;20200;-58
2022/03/16 08:53:13;;;;;;;33.17;26.53;;;8.30;99.90;;;9.01;93.94;98764.03;5199915;28;20205;-58
2022/03/16 08:55:46;;;;;;;31.10;27.50;;;8.30;99.90;;;8.94;93.93;98768.53;5201204;28;20202;-58
2022/03/16 08:58:19;;;;;;;30.63;26.80;;;8.30;99.90;;;9.01;93.54;98766.59;5205064;28;20214;-59
2022/03/16 09:00:52;;;;;;;32.67;26.87;;;8.30;99.90;;;8.90;93.82;98756.28;5202164;28;20198;-58
2022/03/16 09:03:27;;;;;;;31.60;27.43;;;8.20;99.90;;;9.09;92.58;98763.72;5202572;28;20210;-58
2022/03/16 09:06:00;;;;;;;31.63;27.60;;;8.30;99.90;;;9.11;95.31;98769.84;5204027;28;20198;-57
2022/03/16 09:08:33;;;;;;;31.33;26.73;;;8.40;99.90;;;9.53;93.28;98769.69;5202357;28;20710;-59
2022/03/16 09:11:06;;;;;;;30.73;25.73;;;8.70;99.90;;;9.38;91.66;98764.28;5204996;28;20202;-57
2022/03/16 09:13:40;;;;;;;32.57;27.43;;;8.60;99.90;;;9.28;92.71;98764.38;5204031;28;20650;-58
2022/03/16 09:16:13;;;;;;;31.30;25.87;;;8.60;99.90;;;9.35;91.89;98774.25;5204228;28;20202;-59
2022/03/16 09:18:49;;;;;;;33.07;26.80;;;8.60;99.90;;;9.39;92.16;98765.19;5202713;28;20659;-58
2022/03/16 09:21:24;;;;;;;31.10;26.07;;;8.60;99.90;;;9.51;89.29;98760.13;5203734;28;20673;-59
2022/03/16 09:23:57;;;;;;;28.57;25.20;;;8.80;99.90;;;9.52;90.38;98767.00;5204701;28;20201;-58
2022/03/16 09:26:30;;;;;;;31.73;26.23;;;8.80;99.90;;;9.47;89.66;98765.00;5202299;28;20202;-58
2022/03/16 09:29:08;;;;;;;28.63;24.63;;;8.80;99.90;;;9.57;88.25;98758.03;5204195;28;20712;-59
2022/03/16 09:31:42;;;;;;;29.33;25.47;;;8.90;99.90;;;9.54;88.37;98756.13;5202034;28;20202;-58
2022/03/16 09:34:17;;;;;;;29.30;25.43;;;8.80;99.90;;;9.49;88.58;98749.78;5204300;28;20209;-58
2022/03/16 09:36:50;;;;;;;29.70;23.83;;;8.80;99.90;;;9.71;87.24;98747.19;5203635;28;20193;-58
2022/03/16 09:39:23;;;;;;;30.27;25.53;;;8.90;99.90;;;9.63;86.51;98740.63;5200734;28;20579;-58
2022/03/16 09:41:57;;;;;;;29.33;24.57;;;8.80;99.90;;;9.46;88.79;98747.91;5202664;28;20220;-57
2022/03/16 09:44:31;;;;;;;28.53;24.43;;;8.80;99.90;;;9.45;88.95;98741.03;5204007;28;20267;-58
2022/03/16 09:47:09;;;;;;;28.23;25.20;;;8.80;99.90;;;9.58;89.32;98744.50;5204579;28;20193;-58
2022/03/16 09:49:44;;;;;;;30.80;25.40;;;8.90;99.90;;;9.89;86.35;98746.00;5203879;28;20244;-59
2022/03/16 09:52:17;;;;;;;28.00;24.17;;;9.30;99.90;;;9.68;87.42;98740.19;5202948;28;20206;-58
2022/03/16 09:54:51;;;;;;;28.50;25.43;;;9.10;99.90;;;9.60;88.32;98736.19;5203202;28;20208;-58
2022/03/16 09:57:24;;;;;;;28.47;25.47;;;9.00;99.90;;;9.78;86.40;98736.66;5204589;28;20380;-58
2022/03/16 09:59:57;;;;;;;29.23;24.90;;;9.10;99.90;;;9.64;87.39;98734.75;5203291;28;20222;-58
2022/03/16 10:02:31;;;;;;;28.37;24.37;;;9.00;99.90;;;9.80;87.83;98730.00;5203884;28;20202;-58
2022/03/16 10:05:09;;;;;;;26.30;23.43;;;9.10;99.90;;;9.81;85.75;98713.91;5202559;28;20708;-58
2022/03/16 10:07:48;;;;;;;25.47;22.70;;;9.30;99.90;;;10.07;85.33;98722.59;5203324;28;20229;-58
2022/03/16 10:13:22;;;;;;;24.13;21.57;;;9.70;99.90;;;10.54;81.29;98723.50;5204187;28;20212;-58
2022/03/16 10:16:11;;;;;;;24.43;21.93;;;10.00;99.90;;;10.60;80.98;98721.38;5199887;28;20586;-57
2022/03/16 10:18:55;;;;;;;23.37;20.87;;;10.10;99.90;;;10.79;80.07;98718.44;5206830;28;20271;-57
2022/03/16 10:21:32;;;;;;;24.47;21.87;;;10.20;99.90;;;10.68;81.08;98719.34;5205748;28;20208;-58
2022/03/16 10:24:06;;;;;;;25.40;22.77;;;10.10;99.90;;;10.60;82.50;98723.03;5203977;28;20682;-58
2022/03/16 10:26:52;;;;;;;25.27;22.55;;;10.00;99.90;;;10.87;80.60;98725.75;5201837;28;20482;-58
2022/03/16 10:29:26;;;;;;;24.70;22.17;;;10.20;99.90;;;10.92;79.17;98715.06;5200687;28;20225;-58
2022/03/16 10:32:01;;;;;;;24.50;21.97;;;10.20;99.90;;;10.94;77.68;98713.50;5201675;28;20205;-56
2022/03/16 10:34:35;;;;;;;25.42;22.80;;;10.20;99.90;;;10.92;78.62;98716.72;5202936;28;20193;-58
2022/03/16 10:37:20;;;;;;;24.58;22.17;;;10.20;99.90;;;11.01;79.76;98712.25;5207595;28;20553;-58
2022/03/16 10:39:54;;;;;;;23.20;20.80;;;10.30;99.90;;;11.06;77.00;98708.34;5202891;28;20223;-58
2022/03/16 10:48:18;;;;;;;22.63;20.33;;;10.50;99.90;;;11.10;77.64;98700.06;5205108;28;20610;-58
2022/03/16 10:50:58;;;;;;;23.08;20.73;;;10.50;99.90;;;11.14;76.91;98683.28;5207787;28;20200;-58